CheckWX is a tool to help pilots better visualize weather data.  It is not intended as a substitute for an official pre-flight weather briefing.

02:09:33 UTC

FACT METAR
Cape Town International Airport
Cape Town, South Africa
Current

1 hour ago

FACT 180100Z 23011KT CAVOK 18/16 Q1014 NOSIG
Observed
Feb-18 @ 01:00 UTC
Wind
  • 230° at 11 KTS
Visibility
10,000+ meters
Flight Rules
VFR
Cloud Levels
  • Clear skies
Temperature
18°C / 64°F
Dewpoint
16°C / 61°F
Humidity
88%
Altimeter
29.94" Hg
Pressure
1013.92 hPa
Previous

2 hours ago

FACT 180000Z 21012KT CAVOK 19/16 Q1015 NOSIG
Observed
Feb-18 @ 00:00 UTC
Wind
  • 210° at 12 KTS
Visibility
10,000+ meters
Flight Rules
VFR
Cloud Levels
  • Clear skies
Temperature
19°C / 66°F
Dewpoint
16°C / 61°F
Humidity
83%
Altimeter
29.97" Hg
Pressure
1014.92 hPa
Previous

3 hours ago

FACT 172300Z 18010KT CAVOK 22/17 Q1015 NOSIG
Observed
Feb-17 @ 23:00 UTC
Wind
  • 180° at 10 KTS
Visibility
10,000+ meters
Flight Rules
VFR
Cloud Levels
  • Clear skies
Temperature
22°C / 72°F
Dewpoint
17°C / 63°F
Humidity
73%
Altimeter
29.97" Hg
Pressure
1014.92 hPa